Time;durP1;ratioP1;P1;durP2;ratioP2;P2;SDS_P1;SDS_P2;PMS_P1;PMS_P2;Temp;Humidity;BMP_temperature;BMP_pressure;BME280_temperature;BME280_humidity;BME280_pressure;Samples;Min_cycle;Max_cycle;Signal;HPM_P1;HPM_P2
2023/06/13 00:02:22;;;;;;;;;;;21.80;60.40;;;;;;6293902;28;19912;-72
2023/06/13 00:05:23;;;;;;;;;;;21.80;60.40;;;;;;6293549;28;19949;-72
2023/06/13 00:08:24;;;;;;;;;;;21.80;60.40;;;;;;6293747;28;19909;-72
2023/06/13 00:11:25;;;;;;;;;;;21.80;60.40;;;;;;6265551;28;19923;-72
2023/06/13 00:14:26;;;;;;;;;;;21.80;60.40;;;;;;6265411;28;19968;-73
2023/06/13 00:17:26;;;;;;;;;;;21.80;60.40;;;;;;6264736;28;20295;-72
2023/06/13 00:20:29;;;;;;;;;;;21.80;60.40;;;;;;6265943;28;19971;-73
2023/06/13 00:23:30;;;;;;;;;;;21.80;60.40;;;;;;6267876;28;19912;-72
2023/06/13 00:26:30;;;;;;;;;;;21.80;60.50;;;;;;6290316;28;19908;-72
2023/06/13 00:29:31;;;;;;;;;;;21.80;60.50;;;;;;6271931;28;19909;-72
2023/06/13 00:32:31;;;;;;;;;;;21.80;60.40;;;;;;6264983;28;19940;-72
2023/06/13 00:35:32;;;;;;;;;;;21.80;61.30;;;;;;6265067;28;20375;-72
2023/06/13 00:38:33;;;;;;;;;;;21.80;60.50;;;;;;6264861;28;19974;-72
2023/06/13 00:41:33;;;;;;;;;;;21.80;60.40;;;;;;6274161;28;19919;-72
2023/06/13 00:44:34;;;;;;;;;;;21.80;60.40;;;;;;6292689;28;19912;-72
2023/06/13 00:47:36;;;;;;;;;;;21.80;60.40;;;;;;6293225;28;20008;-72
2023/06/13 00:50:40;;;;;;;;;;;21.80;60.50;;;;;;6293033;28;20001;-72
2023/06/13 00:53:41;;;;;;;;;;;21.80;60.50;;;;;;6293636;28;19920;-72
2023/06/13 00:56:44;;;;;;;;;;;21.80;60.40;;;;;;6292668;28;20566;-72
2023/06/13 00:59:44;;;;;;;;;;;21.80;60.40;;;;;;6293145;28;19915;-72
2023/06/13 01:02:45;;;;;;;;;;;21.80;60.50;;;;;;6292547;28;20334;-72
2023/06/13 01:05:46;;;;;;;;;;;21.80;60.40;;;;;;6293086;28;19920;-72
2023/06/13 01:08:47;;;;;;;;;;;21.80;60.40;;;;;;6293039;28;19919;-72
2023/06/13 01:12:08;;;;;;;;;;;21.80;60.40;;;;;;6293233;28;20019;-72
2023/06/13 01:15:11;;;;;;;;;;;21.80;60.50;;;;;;6292315;28;19917;-72
2023/06/13 01:18:14;;;;;;;;;;;21.80;60.50;;;;;;6292450;28;20294;-72
2023/06/13 01:21:16;;;;;;;;;;;21.80;60.40;;;;;;6292836;28;19974;-72
2023/06/13 01:24:24;;;;;;;;;;;21.80;60.40;;;;;;6292392;28;19966;-72
2023/06/13 01:27:26;;;;;;;;;;;21.80;60.50;;;;;;6319226;28;19930;-72
2023/06/13 01:30:27;;;;;;;;;;;21.80;60.40;;;;;;6302906;28;20274;-72
2023/06/13 01:33:27;;;;;;;;;;;21.80;60.40;;;;;;6297182;28;19960;-72
2023/06/13 01:36:28;;;;;;;;;;;21.80;60.40;;;;;;6297222;28;19908;-72
2023/06/13 01:39:29;;;;;;;;;;;21.80;60.40;;;;;;6297531;28;19915;-72
2023/06/13 01:42:29;;;;;;;;;;;21.80;60.50;;;;;;6297230;28;19915;-72
2023/06/13 01:45:30;;;;;;;;;;;21.80;60.40;;;;;;6296354;28;19915;-72
2023/06/13 01:48:44;;;;;;;;;;;21.80;60.40;;;;;;6296792;28;19908;-72
2023/06/13 01:52:03;;;;;;;;;;;21.80;60.40;;;;;;6273064;28;19959;-72
2023/06/13 01:55:08;;;;;;;;;;;21.80;60.50;;;;;;6282469;28;20003;-72
2023/06/13 01:58:44;;;;;;;;;;;21.80;60.40;;;;;;6296638;28;19908;-72
2023/06/13 02:01:45;;;;;;;;;;;21.80;60.40;;;;;;6268735;28;20383;-72
2023/06/13 02:04:48;;;;;;;;;;;21.80;60.40;;;;;;6278946;28;19930;-72
2023/06/13 02:07:53;;;;;;;;;;;21.80;60.50;;;;;;6296592;28;19908;-72
2023/06/13 02:10:54;;;;;;;;;;;21.80;60.50;;;;;;6296437;28;19966;-72
2023/06/13 02:13:55;;;;;;;;;;;21.80;60.40;;;;;;6296227;28;19917;-72
2023/06/13 02:16:57;;;;;;;;;;;21.80;60.50;;;;;;6296556;28;19909;-72
2023/06/13 02:19:57;;;;;;;;;;;21.80;60.40;;;;;;6296119;28;19909;-72
2023/06/13 02:22:58;;;;;;;;;;;21.80;60.50;;;;;;6296813;28;19909;-72
2023/06/13 02:25:58;;;;;;;;;;;21.80;60.40;;;;;;6294934;28;19959;-72
2023/06/13 02:28:58;;;;;;;;;;;21.80;60.50;;;;;;6296113;28;19908;-72
2023/06/13 02:31:59;;;;;;;;;;;21.80;60.50;;;;;;6296256;28;19954;-72
2023/06/13 02:35:00;;;;;;;;;;;21.80;60.50;;;;;;6296435;28;20397;-72
2023/06/13 02:38:00;;;;;;;;;;;21.80;60.50;;;;;;6295807;28;19954;-72
2023/06/13 02:41:02;;;;;;;;;;;21.80;60.40;;;;;;6295911;28;19966;-72
2023/06/13 02:44:03;;;;;;;;;;;21.80;60.40;;;;;;6295977;28;19912;-72
2023/06/13 02:47:03;;;;;;;;;;;21.80;60.40;;;;;;6295678;28;20382;-72
2023/06/13 02:50:04;;;;;;;;;;;21.80;60.50;;;;;;6295570;28;19916;-71
2023/06/13 02:53:05;;;;;;;;;;;21.80;60.40;;;;;;6295771;28;20007;-72
2023/06/13 02:56:06;;;;;;;;;;;21.80;60.40;;;;;;6295246;28;19999;-72
2023/06/13 02:59:07;;;;;;;;;;;21.80;60.50;;;;;;6295436;28;19908;-72
2023/06/13 03:02:07;;;;;;;;;;;21.80;60.50;;;;;;6295460;28;19962;-72
2023/06/13 03:05:14;;;;;;;;;;;21.80;60.40;;;;;;6295296;28;19931;-72
2023/06/13 03:08:18;;;;;;;;;;;21.80;60.40;;;;;;6295380;28;20024;-72
2023/06/13 03:11:19;;;;;;;;;;;21.80;60.50;;;;;;6295417;28;20192;-72
2023/06/13 03:14:19;;;;;;;;;;;21.80;60.40;;;;;;6295303;28;19924;-72
2023/06/13 03:17:20;;;;;;;;;;;21.80;60.40;;;;;;6295929;28;20383;-72
2023/06/13 03:20:21;;;;;;;;;;;21.80;60.40;;;;;;6294623;28;20355;-72
2023/06/13 03:23:21;;;;;;;;;;;21.80;60.40;;;;;;6311172;28;20358;-72
2023/06/13 03:26:22;;;;;;;;;;;21.80;60.40;;;;;;6309934;28;19962;-72
2023/06/13 03:29:23;;;;;;;;;;;21.80;60.40;;;;;;6294353;28;19917;-72
2023/06/13 03:32:23;;;;;;;;;;;21.80;60.40;;;;;;6294487;28;20034;-72
2023/06/13 03:35:24;;;;;;;;;;;21.80;60.50;;;;;;6294038;28;19939;-72
2023/06/13 03:38:27;;;;;;;;;;;21.80;60.40;;;;;;6294782;28;19909;-72
2023/06/13 03:41:27;;;;;;;;;;;21.80;60.40;;;;;;6292964;28;20007;-72
2023/06/13 03:44:28;;;;;;;;;;;21.80;60.50;;;;;;6294733;28;19931;-72
2023/06/13 03:47:29;;;;;;;;;;;21.80;60.40;;;;;;6294614;28;19962;-72
2023/06/13 03:50:29;;;;;;;;;;;21.80;60.40;;;;;;6293751;28;19909;-72
2023/06/13 03:53:30;;;;;;;;;;;21.80;60.50;;;;;;6293914;28;19943;-72
2023/06/13 03:56:30;;;;;;;;;;;21.80;60.40;;;;;;6293953;28;19912;-72
2023/06/13 04:03:09;;;;;;;;;;;21.80;61.30;;;;;;6294080;28;20379;-72
2023/06/13 04:06:10;;;;;;;;;;;21.80;60.40;;;;;;6293304;28;20468;-72
2023/06/13 04:09:11;;;;;;;;;;;21.80;60.40;;;;;;6293801;28;19916;-71
2023/06/13 04:12:11;;;;;;;;;;;21.80;60.40;;;;;;6293910;28;19913;-72
2023/06/13 04:15:12;;;;;;;;;;;21.80;60.40;;;;;;6293381;28;20013;-72
2023/06/13 04:18:17;;;;;;;;;;;21.80;60.50;;;;;;6293499;28;19912;-72
2023/06/13 04:21:17;;;;;;;;;;;21.80;60.40;;;;;;6293332;28;19916;-72
2023/06/13 04:24:18;;;;;;;;;;;21.80;60.40;;;;;;6306490;28;19912;-72
2023/06/13 04:27:19;;;;;;;;;;;21.80;60.40;;;;;;6309623;28;19919;-72
2023/06/13 04:30:20;;;;;;;;;;;21.80;60.40;;;;;;6293574;28;19962;-72
2023/06/13 04:33:21;;;;;;;;;;;21.80;60.40;;;;;;6293563;28;19983;-71
2023/06/13 04:36:23;;;;;;;;;;;21.80;60.40;;;;;;6293048;28;20352;-72
2023/06/13 04:39:24;;;;;;;;;;;21.80;60.40;;;;;;6293299;28;19958;-72
2023/06/13 04:42:26;;;;;;;;;;;21.80;60.40;;;;;;6276623;28;19908;-72
2023/06/13 04:45:27;;;;;;;;;;;21.80;60.40;;;;;;6292592;28;19916;-71
2023/06/13 04:48:28;;;;;;;;;;;21.80;61.10;;;;;;6290260;28;19931;-72
2023/06/13 04:51:29;;;;;;;;;;;21.80;60.40;;;;;;6291964;28;19932;-72
2023/06/13 04:54:30;;;;;;;;;;;21.80;60.20;;;;;;6268184;28;19917;-71
2023/06/13 04:57:31;;;;;;;;;;;21.80;60.30;;;;;;6275371;28;19913;-71
2023/06/13 05:00:31;;;;;;;;;;;21.80;60.40;;;;;;6291128;28;19920;-72
2023/06/13 05:03:32;;;;;;;;;;;21.80;60.40;;;;;;6269761;28;19929;-72
2023/06/13 05:06:37;;;;;;;;;;;21.80;60.40;;;;;;6286597;28;19917;-72
2023/06/13 05:09:37;;;;;;;;;;;21.80;60.50;;;;;;6269337;28;20330;-71
2023/06/13 05:12:38;;;;;;;;;;;21.80;60.40;;;;;;6267440;28;19913;-72
2023/06/13 05:15:39;;;;;;;;;;;21.80;60.50;;;;;;6267229;28;19975;-71
2023/06/13 05:18:40;;;;;;;;;;;21.80;60.40;;;;;;6280608;28;19916;-72
2023/06/13 05:21:41;;;;;;;;;;;21.80;60.50;;;;;;6291734;28;19968;-72
2023/06/13 05:24:41;;;;;;;;;;;21.80;60.50;;;;;;6290302;28;19916;-71
2023/06/13 05:27:42;;;;;;;;;;;21.80;60.50;;;;;;6279032;28;19908;-71
2023/06/13 05:30:42;;;;;;;;;;;21.80;60.50;;;;;;6282357;28;20355;-71
2023/06/13 05:33:43;;;;;;;;;;;21.80;60.50;;;;;;6291636;28;19927;-71
2023/06/13 05:36:43;;;;;;;;;;;21.90;60.30;;;;;;6290387;28;19916;-72
2023/06/13 05:39:44;;;;;;;;;;;21.90;60.20;;;;;;6302597;28;19918;-71
2023/06/13 05:42:44;;;;;;;;;;;21.90;60.20;;;;;;6306369;28;19912;-71
2023/06/13 05:45:47;;;;;;;;;;;22.00;60.20;;;;;;6281268;28;19909;-72
2023/06/13 05:48:48;;;;;;;;;;;21.90;60.20;;;;;;6282230;28;19908;-72
2023/06/13 05:51:48;;;;;;;;;;;22.00;60.20;;;;;;6291012;28;19931;-72
2023/06/13 05:54:48;;;;;;;;;;;22.00;60.00;;;;;;6307045;28;20166;-72
2023/06/13 05:57:50;;;;;;;;;;;22.00;60.00;;;;;;6316029;28;19908;-73
2023/06/13 06:00:52;;;;;;;;;;;22.10;60.00;;;;;;6293020;28;19951;-72
2023/06/13 06:03:52;;;;;;;;;;;22.10;60.00;;;;;;6314958;28;20430;-72
2023/06/13 06:06:53;;;;;;;;;;;22.10;59.90;;;;;;6318346;28;19972;-72
2023/06/13 06:09:54;;;;;;;;;;;22.20;59.90;;;;;;6312793;28;20259;-72
2023/06/13 06:12:54;;;;;;;;;;;22.20;60.00;;;;;;6319074;28;19908;-72
2023/06/13 06:15:55;;;;;;;;;;;22.20;59.80;;;;;;6298519;28;20256;-72
2023/06/13 06:18:55;;;;;;;;;;;22.20;59.80;;;;;;6301147;28;19908;-72
2023/06/13 06:21:56;;;;;;;;;;;22.20;59.90;;;;;;6320446;28;19916;-72
2023/06/13 06:24:56;;;;;;;;;;;22.10;59.90;;;;;;6307830;28;20382;-71
2023/06/13 06:27:57;;;;;;;;;;;22.20;59.80;;;;;;6297462;28;19916;-71
2023/06/13 06:30:57;;;;;;;;;;;22.30;59.80;;;;;;6316263;28;19962;-72
2023/06/13 06:33:58;;;;;;;;;;;22.30;59.80;;;;;;6314681;28;20311;-72
2023/06/13 06:36:58;;;;;;;;;;;22.20;60.00;;;;;;6297060;28;20359;-73
2023/06/13 06:39:59;;;;;;;;;;;22.20;60.10;;;;;;6308297;28;19951;-72
2023/06/13 06:43:00;;;;;;;;;;;22.20;60.10;;;;;;6308305;28;20531;-73
2023/06/13 06:46:00;;;;;;;;;;;22.20;60.10;;;;;;6315907;28;19908;-73
2023/06/13 06:49:01;;;;;;;;;;;22.20;60.10;;;;;;6319219;28;19955;-72
2023/06/13 06:52:02;;;;;;;;;;;22.20;60.10;;;;;;6321982;28;19912;-73
2023/06/13 06:55:02;;;;;;;;;;;22.10;60.00;;;;;;6310451;28;19924;-73
2023/06/13 06:58:03;;;;;;;;;;;22.10;60.00;;;;;;6296655;28;19916;-72
2023/06/13 07:01:03;;;;;;;;;;;22.10;60.00;;;;;;6312506;28;19912;-73
2023/06/13 07:04:04;;;;;;;;;;;22.20;60.00;;;;;;6316288;28;19924;-73
2023/06/13 07:07:06;;;;;;;;;;;22.20;60.00;;;;;;6293290;28;21318;-72
2023/06/13 07:10:07;;;;;;;;;;;22.10;59.80;;;;;;6304350;28;19908;-73
2023/06/13 07:13:08;;;;;;;;;;;22.10;59.80;;;;;;6321553;28;20373;-73
2023/06/13 07:16:08;;;;;;;;;;;22.20;59.80;;;;;;6303700;28;20374;-73
2023/06/13 07:19:09;;;;;;;;;;;22.20;59.80;;;;;;6277367;28;19955;-73
2023/06/13 07:22:10;;;;;;;;;;;22.10;59.80;;;;;;6293890;28;20286;-73
2023/06/13 07:25:10;;;;;;;;;;;22.10;59.70;;;;;;6300676;28;20003;-73
2023/06/13 07:28:11;;;;;;;;;;;22.20;59.70;;;;;;6282938;28;19909;-73
2023/06/13 07:31:11;;;;;;;;;;;22.20;59.60;;;;;;6300062;28;20271;-73
2023/06/13 07:34:12;;;;;;;;;;;22.20;59.60;;;;;;6303479;28;19952;-73
2023/06/13 07:37:12;;;;;;;;;;;22.20;59.50;;;;;;6285261;28;19916;-72
2023/06/13 07:40:13;;;;;;;;;;;22.20;59.60;;;;;;6295982;28;20382;-73
2023/06/13 07:43:13;;;;;;;;;;;22.20;59.50;;;;;;6320335;28;19916;-73
2023/06/13 07:46:14;;;;;;;;;;;22.20;59.40;;;;;;6297120;28;19916;-73
2023/06/13 07:49:14;;;;;;;;;;;22.20;59.30;;;;;;6294441;28;19917;-73
2023/06/13 07:52:15;;;;;;;;;;;22.20;59.20;;;;;;6287081;28;19916;-73
2023/06/13 07:55:15;;;;;;;;;;;22.20;59.30;;;;;;6296560;28;19912;-72
2023/06/13 07:58:16;;;;;;;;;;;22.30;59.30;;;;;;6320309;28;19912;-73
2023/06/13 08:01:16;;;;;;;;;;;22.20;59.30;;;;;;6310414;28;19912;-73
2023/06/13 08:04:18;;;;;;;;;;;22.20;59.20;;;;;;6304920;28;19920;-73
2023/06/13 08:07:18;;;;;;;;;;;22.30;59.40;;;;;;6313364;28;19947;-73
2023/06/13 08:10:19;;;;;;;;;;;22.30;59.40;;;;;;6316343;28;19915;-73
2023/06/13 08:13:19;;;;;;;;;;;22.20;59.30;;;;;;6295049;28;19912;-72
2023/06/13 08:16:20;;;;;;;;;;;22.20;59.30;;;;;;6299943;28;19908;-73
2023/06/13 08:19:20;;;;;;;;;;;22.20;59.20;;;;;;6320234;28;19919;-73
2023/06/13 08:22:21;;;;;;;;;;;22.20;59.30;;;;;;6295740;28;19952;-72
2023/06/13 08:25:22;;;;;;;;;;;22.20;59.30;;;;;;6294376;28;19908;-73
2023/06/13 08:28:23;;;;;;;;;;;22.20;59.10;;;;;;6317900;28;19912;-72
2023/06/13 08:31:23;;;;;;;;;;;22.30;59.10;;;;;;6310437;28;20282;-72
2023/06/13 08:34:24;;;;;;;;;;;22.30;59.10;;;;;;6294535;28;19913;-73
2023/06/13 08:37:25;;;;;;;;;;;22.30;59.10;;;;;;6293029;28;19920;-72
2023/06/13 08:40:26;;;;;;;;;;;22.30;59.10;;;;;;6294185;28;19931;-72
2023/06/13 08:43:26;;;;;;;;;;;22.30;59.00;;;;;;6269666;28;19920;-72
2023/06/13 08:46:28;;;;;;;;;;;22.30;58.90;;;;;;6296002;28;19920;-72
2023/06/13 08:49:28;;;;;;;;;;;22.30;59.10;;;;;;6319562;28;19927;-73
2023/06/13 08:52:39;;;;;;;;;;;22.40;59.20;;;;;;6303251;28;19916;-72
2023/06/13 08:55:40;;;;;;;;;;;22.40;59.20;;;;;;6293639;28;19982;-75
2023/06/13 08:58:43;;;;;;;;;;;22.40;59.10;;;;;;6317084;28;19966;-73
2023/06/13 09:01:44;;;;;;;;;;;22.40;59.10;;;;;;6298227;28;19916;-72
2023/06/13 09:04:45;;;;;;;;;;;22.40;58.90;;;;;;6292170;28;19928;-74
2023/06/13 09:07:46;;;;;;;;;;;22.50;59.10;;;;;;6308360;28;19919;-73
2023/06/13 09:10:47;;;;;;;;;;;22.40;59.00;;;;;;6319147;28;19912;-73
2023/06/13 09:13:48;;;;;;;;;;;22.40;59.10;;;;;;6294438;28;19918;-73
2023/06/13 09:16:50;;;;;;;;;;;22.40;59.10;;;;;;6299044;28;19908;-73
2023/06/13 09:19:50;;;;;;;;;;;22.40;59.10;;;;;;6318787;28;19955;-73
2023/06/13 09:22:51;;;;;;;;;;;22.40;59.10;;;;;;6303461;28;19937;-73
2023/06/13 09:25:52;;;;;;;;;;;22.40;59.10;;;;;;6293650;28;19908;-73
2023/06/13 09:28:53;;;;;;;;;;;22.40;59.10;;;;;;6293728;28;19967;-72
2023/06/13 09:31:57;;;;;;;;;;;22.40;59.10;;;;;;6286658;28;20391;-73
2023/06/13 09:34:57;;;;;;;;;;;22.40;59.10;;;;;;6268899;28;20386;-73
2023/06/13 09:37:58;;;;;;;;;;;22.40;59.10;;;;;;6301559;28;19920;-73
2023/06/13 09:41:01;;;;;;;;;;;22.40;59.20;;;;;;6318381;28;20013;-72
2023/06/13 09:44:03;;;;;;;;;;;22.40;59.10;;;;;;6309879;28;19912;-72
2023/06/13 09:47:03;;;;;;;;;;;22.40;59.10;;;;;;6294670;28;19917;-72
2023/06/13 09:50:04;;;;;;;;;;;22.40;59.10;;;;;;6296464;28;19912;-72
2023/06/13 09:53:06;;;;;;;;;;;22.40;59.30;;;;;;6305681;28;19981;-72
2023/06/13 09:56:07;;;;;;;;;;;22.40;59.10;;;;;;6323054;28;19912;-73
2023/06/13 09:59:07;;;;;;;;;;;22.40;59.10;;;;;;6303050;28;19919;-72
2023/06/13 10:02:08;;;;;;;;;;;22.40;59.20;;;;;;6295346;28;20375;-72
2023/06/13 10:05:10;;;;;;;;;;;22.40;59.20;;;;;;6292577;28;19966;-72
2023/06/13 10:08:11;;;;;;;;;;;22.40;59.30;;;;;;6295602;28;19919;-72
2023/06/13 10:11:15;;;;;;;;;;;22.40;59.30;;;;;;6296838;28;19913;-72
2023/06/13 10:14:17;;;;;;;;;;;22.30;59.20;;;;;;6311567;28;19941;-73
2023/06/13 10:17:18;;;;;;;;;;;22.30;59.30;;;;;;6319976;28;19946;-73
2023/06/13 10:20:19;;;;;;;;;;;22.30;59.30;;;;;;6296655;28;19912;-71
2023/06/13 10:23:21;;;;;;;;;;;22.30;59.30;;;;;;6298788;28;19953;-72
2023/06/13 10:26:41;;;;;;;;;;;22.30;59.30;;;;;;6321785;28;19912;-73
2023/06/13 10:30:01;;;;;;;;;;;22.30;59.30;;;;;;6295733;28;19919;-72
2023/06/13 10:33:02;;;;;;;;;;;22.30;59.30;;;;;;6296337;28;20446;-73
2023/06/13 10:36:24;;;;;;;;;;;22.30;59.30;;;;;;6285681;28;19923;-72
2023/06/13 10:39:35;;;;;;;;;;;22.30;59.40;;;;;;6301512;28;19954;-72
2023/06/13 10:42:36;;;;;;;;;;;22.30;59.40;;;;;;6320408;28;19983;-73
2023/06/13 10:45:37;;;;;;;;;;;22.30;59.40;;;;;;6295155;28;19909;-72
2023/06/13 10:48:51;;;;;;;;;;;22.30;59.50;;;;;;6297635;28;19999;-72
2023/06/13 10:51:54;;;;;;;;;;;22.20;59.40;;;;;;6321894;28;19947;-72
2023/06/13 10:54:58;;;;;;;;;;;22.20;59.40;;;;;;6316042;28;20293;-72
2023/06/13 10:58:01;;;;;;;;;;;22.30;59.60;;;;;;6319660;28;19919;-72
2023/06/13 11:01:03;;;;;;;;;;;22.30;59.60;;;;;;6294638;28;20413;-72
2023/06/13 11:04:10;;;;;;;;;;;22.20;59.50;;;;;;6298483;28;20369;-72
2023/06/13 11:07:25;;;;;;;;;;;22.20;59.50;;;;;;6320757;28;19912;-72
2023/06/13 11:10:29;;;;;;;;;;;22.20;59.60;;;;;;6299245;28;20240;-72
2023/06/13 11:13:34;;;;;;;;;;;22.20;59.60;;;;;;6295313;28;20007;-72
2023/06/13 11:16:38;;;;;;;;;;;22.20;59.60;;;;;;6319961;28;20406;-72
2023/06/13 11:19:39;;;;;;;;;;;22.20;59.50;;;;;;6302847;28;19908;-72
2023/06/13 11:22:43;;;;;;;;;;;22.20;59.40;;;;;;6295217;28;19909;-72
2023/06/13 11:25:43;;;;;;;;;;;22.20;59.50;;;;;;6309005;28;19908;-72
2023/06/13 11:28:45;;;;;;;;;;;22.10;59.50;;;;;;6316043;28;20366;-72
2023/06/13 11:31:49;;;;;;;;;;;22.10;59.60;;;;;;6295621;28;19909;-72
2023/06/13 11:34:54;;;;;;;;;;;22.10;59.60;;;;;;6295863;28;20432;-72
2023/06/13 11:38:00;;;;;;;;;;;22.10;59.70;;;;;;6286004;28;19913;-73
2023/06/13 11:41:01;;;;;;;;;;;22.10;59.70;;;;;;6313441;28;19908;-73
2023/06/13 11:44:01;;;;;;;;;;;22.10;59.70;;;;;;6314729;28;20405;-72
2023/06/13 11:47:02;;;;;;;;;;;22.10;59.80;;;;;;6294655;28;19999;-72
2023/06/13 11:50:02;;;;;;;;;;;22.10;59.70;;;;;;6303983;28;20406;-72
2023/06/13 11:53:03;;;;;;;;;;;22.10;59.90;;;;;;6301067;28;19964;-72
2023/06/13 11:56:06;;;;;;;;;;;22.10;59.80;;;;;;6311038;28;19920;-72
2023/06/13 11:59:16;;;;;;;;;;;22.10;59.80;;;;;;6316317;28;20256;-72
2023/06/13 12:02:18;;;;;;;;;;;22.10;59.80;;;;;;6295045;28;19946;-72
2023/06/13 12:05:19;;;;;;;;;;;22.10;59.80;;;;;;6302901;28;19912;-72
2023/06/13 12:08:19;;;;;;;;;;;22.10;59.90;;;;;;6319430;28;19949;-73
2023/06/13 12:11:21;;;;;;;;;;;22.10;59.90;;;;;;6297905;28;19987;-72
2023/06/13 12:14:23;;;;;;;;;;;22.10;59.90;;;;;;6292027;28;19924;-72
2023/06/13 12:17:26;;;;;;;;;;;22.10;59.90;;;;;;6297069;28;20280;-72
2023/06/13 12:20:27;;;;;;;;;;;22.10;59.90;;;;;;6303361;28;20367;-72
2023/06/13 12:23:28;;;;;;;;;;;22.10;59.90;;;;;;6319704;28;19993;-72
2023/06/13 12:26:31;;;;;;;;;;;22.00;59.80;;;;;;6297202;28;19908;-72
2023/06/13 12:29:34;;;;;;;;;;;22.10;60.00;;;;;;6291370;28;19951;-72
2023/06/13 12:32:37;;;;;;;;;;;22.00;59.90;;;;;;6319731;28;19909;-72
2023/06/13 12:35:47;;;;;;;;;;;22.00;59.90;;;;;;6300954;28;19921;-72
2023/06/13 12:38:49;;;;;;;;;;;22.10;59.90;;;;;;6291479;28;19912;-73
2023/06/13 12:41:50;;;;;;;;;;;22.00;59.80;;;;;;6309395;28;19955;-73
2023/06/13 12:44:50;;;;;;;;;;;22.00;59.90;;;;;;6310625;28;20440;-73
2023/06/13 12:47:53;;;;;;;;;;;22.00;59.90;;;;;;6318552;28;19912;-73
2023/06/13 12:50:56;;;;;;;;;;;22.10;60.00;;;;;;6307776;28;19912;-73
2023/06/13 12:54:17;;;;;;;;;;;22.10;60.00;;;;;;6293714;28;20302;-72
2023/06/13 12:57:19;;;;;;;;;;;22.00;59.90;;;;;;6310282;28;19920;-72
2023/06/13 13:00:20;;;;;;;;;;;22.00;60.00;;;;;;6313625;28;19917;-73
2023/06/13 13:03:20;;;;;;;;;;;22.00;59.90;;;;;;6292680;28;20408;-73
2023/06/13 13:06:24;;;;;;;;;;;22.00;60.00;;;;;;6296031;28;19942;-72
2023/06/13 13:09:26;;;;;;;;;;;22.00;60.00;;;;;;6294011;28;20030;-73
2023/06/13 13:12:26;;;;;;;;;;;22.00;60.80;;;;;;6310780;28;19915;-72
2023/06/13 13:15:27;;;;;;;;;;;22.00;60.00;;;;;;6314217;28;19917;-72
2023/06/13 13:18:27;;;;;;;;;;;22.00;60.00;;;;;;6293328;28;19908;-72
2023/06/13 13:21:28;;;;;;;;;;;22.00;60.00;;;;;;6291510;28;19908;-72
2023/06/13 13:24:28;;;;;;;;;;;22.00;60.00;;;;;;6296686;28;19908;-72
2023/06/13 13:27:32;;;;;;;;;;;22.00;59.90;;;;;;6314225;28;19909;-72
2023/06/13 13:30:32;;;;;;;;;;;22.00;59.90;;;;;;6321314;28;19953;-72
2023/06/13 13:33:33;;;;;;;;;;;22.00;60.00;;;;;;6298462;28;20414;-72
2023/06/13 13:36:33;;;;;;;;;;;22.00;60.00;;;;;;6295579;28;20337;-72
2023/06/13 13:39:34;;;;;;;;;;;22.00;60.00;;;;;;6299803;28;19947;-72
2023/06/13 13:42:36;;;;;;;;;;;22.00;60.00;;;;;;6304687;28;19948;-72
2023/06/13 13:45:37;;;;;;;;;;;22.00;60.00;;;;;;6296211;28;19913;-72
2023/06/13 13:48:40;;;;;;;;;;;22.00;60.00;;;;;;6295463;28;20413;-73
2023/06/13 13:51:41;;;;;;;;;;;22.00;60.00;;;;;;6288972;28;19908;-72
2023/06/13 13:54:42;;;;;;;;;;;22.00;60.00;;;;;;6322337;28;20402;-73
2023/06/13 13:57:43;;;;;;;;;;;22.00;60.00;;;;;;6305019;28;19912;-72
2023/06/13 14:00:43;;;;;;;;;;;22.00;60.00;;;;;;6297730;28;19917;-72
2023/06/13 14:03:45;;;;;;;;;;;22.00;60.00;;;;;;6315442;28;20285;-72
2023/06/13 14:06:45;;;;;;;;;;;22.00;60.00;;;;;;6313359;28;20688;-72
2023/06/13 14:09:46;;;;;;;;;;;22.00;60.00;;;;;;6296633;28;20007;-72
2023/06/13 14:12:48;;;;;;;;;;;22.00;60.00;;;;;;6308709;28;19908;-72
2023/06/13 14:15:49;;;;;;;;;;;22.00;60.00;;;;;;6322740;28;19923;-73
2023/06/13 14:18:49;;;;;;;;;;;22.00;60.00;;;;;;6298327;28;19944;-73
2023/06/13 14:21:50;;;;;;;;;;;22.00;60.00;;;;;;6277212;28;20579;-73
2023/06/13 14:24:50;;;;;;;;;;;22.00;60.00;;;;;;6322165;28;19933;-72
2023/06/13 14:27:51;;;;;;;;;;;22.10;59.80;;;;;;6307083;28;19927;-72
2023/06/13 14:30:51;;;;;;;;;;;22.20;60.00;;;;;;6294688;28;19909;-73
2023/06/13 14:33:52;;;;;;;;;;;22.20;59.70;;;;;;6311068;28;19916;-72
2023/06/13 14:36:54;;;;;;;;;;;22.20;59.70;;;;;;6296035;28;19921;-73
2023/06/13 14:39:55;;;;;;;;;;;22.20;59.70;;;;;;6321539;28;19943;-72
2023/06/13 14:42:55;;;;;;;;;;;22.20;59.80;;;;;;6308678;28;19917;-73
2023/06/13 14:45:56;;;;;;;;;;;22.20;59.70;;;;;;6295784;28;19916;-73
2023/06/13 14:48:56;;;;;;;;;;;22.10;59.70;;;;;;6310639;28;20434;-72
2023/06/13 14:51:57;;;;;;;;;;;22.20;59.80;;;;;;6317859;28;19912;-72
2023/06/13 14:54:57;;;;;;;;;;;22.20;59.70;;;;;;6296051;28;19965;-73
2023/06/13 14:57:58;;;;;;;;;;;22.20;59.60;;;;;;6301371;28;19923;-73
2023/06/13 15:00:58;;;;;;;;;;;22.20;59.60;;;;;;6320873;28;19981;-73
2023/06/13 15:04:00;;;;;;;;;;;22.20;59.70;;;;;;6301935;28;19963;-73
2023/06/13 15:07:00;;;;;;;;;;;22.20;59.70;;;;;;6293798;28;19916;-73
2023/06/13 15:10:01;;;;;;;;;;;22.20;59.70;;;;;;6277280;28;19934;-73
2023/06/13 15:13:02;;;;;;;;;;;22.20;59.70;;;;;;6302321;28;20282;-73
2023/06/13 15:16:02;;;;;;;;;;;22.20;59.70;;;;;;6286895;28;19962;-73
2023/06/13 15:19:03;;;;;;;;;;;22.20;59.70;;;;;;6309763;28;20362;-72
2023/06/13 15:22:04;;;;;;;;;;;22.20;59.70;;;;;;6291505;28;19923;-73
2023/06/13 15:25:05;;;;;;;;;;;22.20;59.60;;;;;;6317676;28;19912;-73
2023/06/13 15:28:05;;;;;;;;;;;22.30;59.70;;;;;;6304653;28;20622;-73
2023/06/13 15:31:06;;;;;;;;;;;22.20;59.60;;;;;;6275503;28;19914;-73
2023/06/13 15:34:06;;;;;;;;;;;22.20;59.50;;;;;;6304115;28;19919;-73
2023/06/13 15:37:07;;;;;;;;;;;22.20;59.50;;;;;;6294342;28;19916;-73
2023/06/13 15:40:07;;;;;;;;;;;22.30;59.60;;;;;;6315668;28;19912;-73
2023/06/13 15:43:08;;;;;;;;;;;22.30;59.60;;;;;;6313454;28;19913;-72
2023/06/13 15:46:08;;;;;;;;;;;22.30;59.50;;;;;;6293771;28;20427;-73
2023/06/13 15:49:09;;;;;;;;;;;22.30;59.60;;;;;;6309340;28;19908;-72
2023/06/13 15:52:09;;;;;;;;;;;22.30;59.50;;;;;;6319515;28;19916;-73
2023/06/13 15:55:10;;;;;;;;;;;22.40;59.30;;;;;;6295316;28;20283;-73
2023/06/13 15:58:11;;;;;;;;;;;22.40;59.40;;;;;;6297172;28;19963;-73
2023/06/13 16:01:13;;;;;;;;;;;22.40;59.40;;;;;;6308467;28;19908;-72
2023/06/13 16:04:13;;;;;;;;;;;22.40;59.40;;;;;;6301959;28;19923;-73
2023/06/13 16:07:14;;;;;;;;;;;22.40;59.40;;;;;;6294197;28;19920;-73
2023/06/13 16:10:15;;;;;;;;;;;22.40;59.40;;;;;;6305727;28;19909;-73
2023/06/13 16:13:16;;;;;;;;;;;22.40;59.40;;;;;;6294440;28;20054;-73
2023/06/13 16:16:16;;;;;;;;;;;22.40;59.40;;;;;;6317239;28;20378;-73
2023/06/13 16:19:17;;;;;;;;;;;22.40;59.30;;;;;;6306752;28;19943;-72
2023/06/13 16:22:17;;;;;;;;;;;22.40;59.40;;;;;;6291165;28;19909;-74
2023/06/13 16:25:18;;;;;;;;;;;22.40;59.40;;;;;;6309513;28;19908;-73
2023/06/13 16:28:19;;;;;;;;;;;22.40;59.40;;;;;;6315593;28;20303;-72
2023/06/13 16:31:19;;;;;;;;;;;22.40;59.40;;;;;;6292065;28;19909;-72
2023/06/13 16:34:20;;;;;;;;;;;22.40;59.40;;;;;;6297877;28;19923;-73
2023/06/13 16:37:22;;;;;;;;;;;22.40;60.20;;;;;;6285993;28;19942;-73
2023/06/13 16:40:22;;;;;;;;;;;22.40;59.40;;;;;;6307849;28;19912;-72
2023/06/13 16:43:23;;;;;;;;;;;22.30;59.40;;;;;;6296712;28;19919;-72
2023/06/13 16:46:27;;;;;;;;;;;22.30;59.40;;;;;;6302894;28;20375;-72
2023/06/13 16:49:28;;;;;;;;;;;22.30;59.40;;;;;;6291598;28;19912;-73
2023/06/13 16:52:31;;;;;;;;;;;22.40;59.50;;;;;;6290787;28;19908;-73
2023/06/13 16:55:31;;;;;;;;;;;22.30;59.40;;;;;;6306808;28;19958;-73
2023/06/13 16:58:32;;;;;;;;;;;22.40;59.60;;;;;;6316145;28;19912;-73
2023/06/13 17:01:32;;;;;;;;;;;22.30;59.50;;;;;;6286817;28;19924;-73
2023/06/13 17:04:33;;;;;;;;;;;22.30;59.50;;;;;;6301199;28;19927;-73
2023/06/13 17:07:33;;;;;;;;;;;22.30;59.50;;;;;;6315072;28;19920;-73
2023/06/13 17:10:34;;;;;;;;;;;22.30;59.60;;;;;;6315995;28;19916;-73
2023/06/13 17:13:35;;;;;;;;;;;22.30;59.60;;;;;;6316254;28;20430;-73
2023/06/13 17:16:36;;;;;;;;;;;22.30;59.70;;;;;;6315545;28;19935;-73
2023/06/13 17:19:37;;;;;;;;;;;22.20;59.60;;;;;;6311025;28;19912;-73
2023/06/13 17:22:37;;;;;;;;;;;22.20;59.70;;;;;;6290035;28;19912;-73
2023/06/13 17:25:39;;;;;;;;;;;22.20;59.70;;;;;;6288089;28;19908;-73
2023/06/13 17:28:40;;;;;;;;;;;22.20;59.70;;;;;;6290608;28;20398;-73
2023/06/13 17:31:40;;;;;;;;;;;22.20;59.70;;;;;;6303073;28;19919;-74
2023/06/13 17:34:43;;;;;;;;;;;22.20;59.70;;;;;;6310135;28;19917;-73
2023/06/13 17:37:43;;;;;;;;;;;22.20;59.70;;;;;;6280844;28;19970;-74
2023/06/13 17:40:44;;;;;;;;;;;22.20;59.70;;;;;;6302007;28;20366;-74